createdAt,value
2017-09-20T00:00:23.159Z,12.72
2017-09-20T00:02:50.629Z,12.70
2017-09-20T00:05:18.128Z,12.68
2017-09-20T00:07:45.600Z,12.67
2017-09-20T00:10:13.102Z,12.68
2017-09-20T00:12:40.577Z,12.78
2017-09-20T00:15:08.070Z,12.92
2017-09-20T00:17:35.533Z,12.82
2017-09-20T00:20:03.038Z,12.81
2017-09-20T00:22:30.528Z,12.79
2017-09-20T00:24:58.051Z,12.75
2017-09-20T00:27:25.544Z,12.87
2017-09-20T00:29:53.008Z,12.95
2017-09-20T00:32:20.498Z,12.88
2017-09-20T00:34:47.957Z,12.84
2017-09-20T00:37:15.504Z,12.85
2017-09-20T00:39:42.967Z,12.82
2017-09-20T00:42:10.430Z,12.47
2017-09-20T00:44:37.931Z,12.32
2017-09-20T00:47:05.389Z,12.41
2017-09-20T00:49:32.894Z,12.47
2017-09-20T00:52:00.381Z,12.58
2017-09-20T00:54:27.876Z,12.59
2017-09-20T00:56:55.342Z,12.59
2017-09-20T00:59:22.863Z,12.67
2017-09-20T01:01:50.356Z,12.66
2017-09-20T01:04:18.522Z,12.66
2017-09-20T01:06:46.017Z,12.64
2017-09-20T01:09:13.507Z,12.58
2017-09-20T01:11:41.005Z,12.63
2017-09-20T01:14:08.481Z,12.78
2017-09-20T01:16:36.013Z,12.82
2017-09-20T01:19:03.500Z,12.85
2017-09-20T01:21:42.759Z,12.80
2017-09-20T01:24:10.208Z,12.79
2017-09-20T01:26:37.718Z,12.63
2017-09-20T01:29:05.196Z,12.62
2017-09-20T01:31:32.677Z,12.53
2017-09-20T01:34:00.161Z,12.64
2017-09-20T01:36:27.645Z,12.49
2017-09-20T01:38:55.150Z,12.57
2017-09-20T01:41:22.766Z,12.68
2017-09-20T01:43:50.225Z,12.73
2017-09-20T01:46:17.680Z,12.51
2017-09-20T01:48:45.165Z,12.48
2017-09-20T01:51:12.629Z,12.29
2017-09-20T01:53:40.110Z,12.19
2017-09-20T01:56:07.571Z,12.18
2017-09-20T01:58:35.105Z,12.11
2017-09-20T02:01:02.569Z,12.11
2017-09-20T02:03:30.041Z,12.23
2017-09-20T02:05:57.577Z,12.22
2017-09-20T02:08:25.056Z,12.30
2017-09-20T02:10:52.577Z,12.32
2017-09-20T02:13:20.061Z,12.31
2017-09-20T02:15:47.541Z,12.26
2017-09-20T02:18:15.010Z,12.21
2017-09-20T02:20:42.512Z,12.10
2017-09-20T02:23:09.981Z,12.11
2017-09-20T02:25:37.475Z,12.21
2017-09-20T02:28:04.976Z,12.22
2017-09-20T02:30:32.473Z,11.90
2017-09-20T02:32:59.993Z,11.82
2017-09-20T02:35:27.481Z,11.90
2017-09-20T02:37:55.006Z,12.02
2017-09-20T02:40:22.490Z,12.14
2017-09-20T02:42:49.981Z,12.22
2017-09-20T02:45:17.444Z,11.98
2017-09-20T02:47:45.048Z,11.85
2017-09-20T02:50:12.515Z,11.83
2017-09-20T02:52:39.965Z,11.84
2017-09-20T02:55:07.460Z,11.97
2017-09-20T02:57:35.501Z,11.82
2017-09-20T03:00:03.005Z,11.73
2017-09-20T03:02:30.760Z,11.76
2017-09-20T03:04:58.260Z,11.74
2017-09-20T03:07:25.734Z,11.70
2017-09-20T03:09:53.213Z,11.85
2017-09-20T03:12:20.664Z,11.86
2017-09-20T03:14:49.073Z,11.71
2017-09-20T03:17:16.568Z,11.74
2017-09-20T03:19:44.069Z,11.81
2017-09-20T03:22:11.571Z,11.81
2017-09-20T03:24:39.966Z,11.86
2017-09-20T03:27:07.476Z,12.02
2017-09-20T03:29:34.975Z,12.07
2017-09-20T03:32:02.457Z,11.93
2017-09-20T03:34:29.915Z,11.82
2017-09-20T03:36:57.480Z,11.74
2017-09-20T03:39:24.954Z,11.76
2017-09-20T03:41:52.577Z,11.59
2017-09-20T03:44:20.037Z,11.42
2017-09-20T03:46:47.520Z,11.35
2017-09-20T03:49:14.999Z,11.26
2017-09-20T03:51:42.450Z,11.19
2017-09-20T03:54:09.963Z,11.21
2017-09-20T03:56:37.417Z,11.02
2017-09-20T03:59:04.913Z,10.81
2017-09-20T04:01:32.379Z,10.82
2017-09-20T04:03:59.873Z,10.83
2017-09-20T04:06:27.367Z,10.87
2017-09-20T04:08:54.827Z,10.84
2017-09-20T04:11:22.346Z,10.49
2017-09-20T04:13:49.804Z,10.48
2017-09-20T04:16:17.301Z,10.46
2017-09-20T04:18:44.748Z,10.50
2017-09-20T04:21:12.241Z,10.44
2017-09-20T04:23:39.696Z,10.49
2017-09-20T04:26:07.194Z,10.66
2017-09-20T04:28:34.658Z,10.80
2017-09-20T04:31:02.149Z,10.88
2017-09-20T04:33:29.637Z,10.82
2017-09-20T04:35:57.102Z,10.93
2017-09-20T04:38:24.602Z,10.86
2017-09-20T04:40:52.089Z,10.68
2017-09-20T04:43:19.591Z,10.91
2017-09-20T04:45:47.061Z,11.01
2017-09-20T04:48:14.593Z,10.94
2017-09-20T04:50:42.101Z,10.98
2017-09-20T04:53:09.556Z,10.91
2017-09-20T04:55:37.053Z,10.97
2017-09-20T04:58:04.505Z,10.93
2017-09-20T05:00:32.027Z,10.92
2017-09-20T05:02:59.462Z,10.89
2017-09-20T05:05:26.947Z,11.02
2017-09-20T05:07:54.442Z,10.99
2017-09-20T05:10:21.946Z,10.93
2017-09-20T05:12:49.408Z,10.96
2017-09-20T05:15:16.900Z,10.91
2017-09-20T05:17:44.382Z,10.98
2017-09-20T05:20:11.878Z,11.03
2017-09-20T05:22:39.356Z,10.99
2017-09-20T05:25:06.920Z,11.03
2017-09-20T05:27:34.447Z,11.11
2017-09-20T05:30:01.956Z,11.10
2017-09-20T05:32:29.461Z,10.99
2017-09-20T05:34:56.947Z,10.97
2017-09-20T05:37:24.423Z,10.92
2017-09-20T05:39:51.903Z,10.95
2017-09-20T05:42:19.401Z,11.09
2017-09-20T05:44:46.850Z,11.06
2017-09-20T05:47:14.354Z,11.05
2017-09-20T05:49:41.833Z,11.14
2017-09-20T05:52:09.319Z,11.16
2017-09-20T05:54:36.818Z,11.12
2017-09-20T05:57:04.390Z,11.09
2017-09-20T05:59:31.897Z,11.16
2017-09-20T06:01:59.397Z,11.25
2017-09-20T06:04:26.915Z,11.17
2017-09-20T06:06:54.584Z,11.18
2017-09-20T06:09:22.165Z,11.16
2017-09-20T06:11:49.644Z,11.18
2017-09-20T06:14:17.209Z,11.20
2017-09-20T06:16:44.679Z,11.23
2017-09-20T06:19:12.187Z,11.24
2017-09-20T06:21:39.663Z,11.32
2017-09-20T06:24:07.149Z,11.28
2017-09-20T06:26:34.649Z,11.20
2017-09-20T06:29:02.130Z,11.26
2017-09-20T06:31:29.620Z,11.23
2017-09-20T06:33:57.085Z,11.26
2017-09-20T06:36:24.617Z,11.36
2017-09-20T06:38:52.116Z,11.38
2017-09-20T06:41:19.625Z,11.44
2017-09-20T06:43:47.093Z,11.44
2017-09-20T06:46:14.566Z,11.45
2017-09-20T06:48:42.060Z,11.46
2017-09-20T06:51:09.516Z,11.47
2017-09-20T06:53:37.081Z,11.48
2017-09-20T06:56:04.589Z,11.66
2017-09-20T06:58:32.147Z,11.78
2017-09-20T07:00:59.601Z,11.90
2017-09-20T07:03:27.184Z,11.91
2017-09-20T07:05:54.645Z,11.95
2017-09-20T07:08:22.198Z,11.83
2017-09-20T07:10:49.658Z,11.68
2017-09-20T07:13:17.136Z,11.83
2017-09-20T07:15:44.697Z,12.10
2017-09-20T07:18:12.198Z,11.97
2017-09-20T07:20:39.704Z,11.99
2017-09-20T07:23:07.178Z,12.06
2017-09-20T07:25:34.682Z,12.22
2017-09-20T07:28:02.185Z,12.40
2017-09-20T07:30:29.677Z,12.59
2017-09-20T07:32:57.201Z,12.73
2017-09-20T07:35:24.663Z,12.77
2017-09-20T07:37:52.207Z,12.93
2017-09-20T07:40:19.689Z,13.10
2017-09-20T07:42:47.207Z,13.17
2017-09-20T07:45:14.666Z,13.29
2017-09-20T07:47:42.174Z,13.43
2017-09-20T07:50:09.667Z,13.46
2017-09-20T07:52:37.142Z,13.32
2017-09-20T07:55:05.650Z,13.35
2017-09-20T07:57:33.202Z,13.53
2017-09-20T08:00:00.721Z,13.65
2017-09-20T08:02:28.261Z,13.74
2017-09-20T08:04:55.793Z,13.73
2017-09-20T08:07:23.272Z,13.88
2017-09-20T08:09:50.780Z,13.93
2017-09-20T08:12:18.293Z,14.00
2017-09-20T08:14:46.167Z,14.08
2017-09-20T08:17:13.656Z,14.09
2017-09-20T08:19:41.162Z,14.21
2017-09-20T08:22:08.729Z,14.18
2017-09-20T08:24:36.249Z,14.28
2017-09-20T08:27:03.771Z,14.30
2017-09-20T08:29:31.314Z,14.30
2017-09-20T08:31:58.868Z,14.39
2017-09-20T08:34:26.362Z,14.17
2017-09-20T08:36:53.910Z,14.18
2017-09-20T08:39:21.408Z,14.14
2017-09-20T08:41:49.503Z,14.02
2017-09-20T08:44:17.014Z,13.88
2017-09-20T08:46:44.482Z,13.82
2017-09-20T08:49:11.978Z,13.83
2017-09-20T08:51:39.478Z,13.90
2017-09-20T08:54:06.981Z,13.92
2017-09-20T08:56:34.454Z,13.91
2017-09-20T08:59:01.960Z,13.89
2017-09-20T09:01:29.413Z,13.83
2017-09-20T09:03:56.910Z,13.80
2017-09-20T09:06:24.384Z,13.75
2017-09-20T09:08:51.884Z,13.81
2017-09-20T09:11:19.394Z,13.85
2017-09-20T09:13:46.869Z,13.81
2017-09-20T09:16:14.509Z,13.72
2017-09-20T09:18:41.973Z,13.70
2017-09-20T09:21:09.476Z,13.63
2017-09-20T09:23:36.945Z,13.73
2017-09-20T09:26:04.528Z,13.89
2017-09-20T09:28:32.022Z,13.99
2017-09-20T09:30:59.547Z,14.14
2017-09-20T09:33:27.026Z,14.13
2017-09-20T09:35:54.557Z,14.13
2017-09-20T09:38:22.105Z,14.25
2017-09-20T09:40:49.606Z,14.24
2017-09-20T09:43:17.134Z,14.26
2017-09-20T09:45:44.623Z,14.44
2017-09-20T09:48:12.169Z,14.36
2017-09-20T09:50:39.629Z,14.52
2017-09-20T09:53:07.180Z,14.58
2017-09-20T09:55:34.663Z,14.67
2017-09-20T09:58:02.230Z,14.77
2017-09-20T10:00:29.713Z,14.79
2017-09-20T10:02:57.229Z,14.79
2017-09-20T10:05:24.745Z,14.91
2017-09-20T10:07:52.229Z,14.90
2017-09-20T10:10:19.745Z,14.92
2017-09-20T10:12:47.248Z,14.83
2017-09-20T10:15:14.767Z,14.73
2017-09-20T10:17:42.273Z,14.97
2017-09-20T10:20:09.801Z,15.12
2017-09-20T10:22:37.282Z,15.13
2017-09-20T10:25:05.133Z,15.07
2017-09-20T10:27:32.675Z,15.16
2017-09-20T10:30:00.282Z,15.22
2017-09-20T10:32:27.786Z,15.27
2017-09-20T10:34:55.311Z,15.37
2017-09-20T10:37:23.084Z,15.41
2017-09-20T10:39:50.591Z,15.35
2017-09-20T10:42:18.783Z,15.47
2017-09-20T10:44:46.992Z,15.35
2017-09-20T10:47:14.500Z,15.30
2017-09-20T10:49:42.042Z,15.33
2017-09-20T10:52:09.578Z,15.36
2017-09-20T10:54:37.129Z,15.38
2017-09-20T10:57:04.679Z,15.42
2017-09-20T10:59:32.166Z,15.59
2017-09-20T11:01:59.669Z,15.63
2017-09-20T11:04:27.569Z,15.69
2017-09-20T11:06:55.080Z,15.63
2017-09-20T11:09:22.643Z,15.60
2017-09-20T11:11:50.135Z,15.56
2017-09-20T11:14:17.674Z,15.55
2017-09-20T11:16:45.153Z,15.48
2017-09-20T11:19:12.668Z,15.63
2017-09-20T11:21:40.145Z,15.85
2017-09-20T11:24:07.640Z,16.01
2017-09-20T11:26:35.128Z,16.09
2017-09-20T11:29:02.598Z,16.21
2017-09-20T11:31:30.169Z,15.97
2017-09-20T11:33:57.645Z,15.90
2017-09-20T11:36:25.129Z,15.76
2017-09-20T11:38:52.641Z,15.69
2017-09-20T11:41:20.974Z,15.40
2017-09-20T11:43:48.489Z,15.37
2017-09-20T11:46:16.026Z,15.20
2017-09-20T11:48:43.609Z,15.19
2017-09-20T11:51:11.705Z,15.38
2017-09-20T11:53:39.226Z,15.50
2017-09-20T11:56:06.702Z,15.46
2017-09-20T11:58:34.193Z,15.48
2017-09-20T12:01:01.740Z,15.60
2017-09-20T12:03:29.272Z,15.58
2017-09-20T12:05:56.730Z,15.67
2017-09-20T12:08:24.229Z,15.71
2017-09-20T12:10:51.691Z,15.61
2017-09-20T12:13:19.209Z,15.74
2017-09-20T12:15:46.695Z,15.84
2017-09-20T12:18:14.235Z,15.84
2017-09-20T12:20:41.786Z,15.81
2017-09-20T12:23:09.285Z,15.78
2017-09-20T12:25:36.825Z,15.90
2017-09-20T12:28:04.397Z,15.90
2017-09-20T12:30:32.814Z,16.03
2017-09-20T12:33:00.391Z,15.90
2017-09-20T12:35:27.896Z,16.04
2017-09-20T12:37:55.406Z,16.09
2017-09-20T12:40:22.893Z,16.11
2017-09-20T12:42:50.374Z,16.16
2017-09-20T12:45:18.059Z,15.92
2017-09-20T12:47:45.567Z,15.89
2017-09-20T12:50:13.090Z,15.79
2017-09-20T12:52:40.596Z,15.73
2017-09-20T12:55:08.078Z,15.82
2017-09-20T12:57:35.588Z,15.79
2017-09-20T13:00:03.130Z,15.67
2017-09-20T13:02:30.619Z,15.55
2017-09-20T13:04:58.148Z,15.59
2017-09-20T13:07:25.733Z,15.72
2017-09-20T13:09:53.309Z,15.70
2017-09-20T13:12:20.813Z,15.78
2017-09-20T13:14:48.315Z,15.75
2017-09-20T13:17:15.835Z,15.85
2017-09-20T13:19:43.330Z,15.86
2017-09-20T13:22:10.824Z,15.78
2017-09-20T13:24:38.402Z,15.42
2017-09-20T13:27:05.893Z,15.39
2017-09-20T13:29:33.530Z,15.48
2017-09-20T13:32:01.049Z,15.49
2017-09-20T13:34:28.606Z,15.58
2017-09-20T13:36:56.113Z,15.72
2017-09-20T13:39:23.655Z,15.84
2017-09-20T13:41:51.233Z,15.76
2017-09-20T13:44:18.741Z,15.86
2017-09-20T13:46:46.245Z,15.85
2017-09-20T13:49:13.733Z,15.86
2017-09-20T13:51:41.265Z,16.09
2017-09-20T13:54:08.769Z,15.99
2017-09-20T13:56:36.359Z,15.93
2017-09-20T13:59:03.849Z,15.96
2017-09-20T14:01:31.351Z,16.03
2017-09-20T14:04:00.033Z,16.36
2017-09-20T14:06:27.581Z,16.84
2017-09-20T14:08:55.134Z,17.57
2017-09-20T14:11:23.598Z,18.10
2017-09-20T14:13:51.110Z,18.37
2017-09-20T14:16:19.650Z,18.65
2017-09-20T14:18:47.209Z,18.74
2017-09-20T14:21:14.785Z,18.72
2017-09-20T14:23:42.351Z,19.02
2017-09-20T14:26:09.848Z,19.35
2017-09-20T14:28:37.412Z,19.51
2017-09-20T14:31:04.968Z,19.65
2017-09-20T14:33:32.433Z,19.93
2017-09-20T14:35:59.935Z,19.90
2017-09-20T14:38:27.425Z,20.28
2017-09-20T14:40:54.935Z,20.60
2017-09-20T14:43:22.411Z,20.65
2017-09-20T14:45:49.919Z,20.86
2017-09-20T14:48:17.385Z,20.78
2017-09-20T14:50:44.859Z,20.84
2017-09-20T14:53:12.394Z,21.36
2017-09-20T14:55:40.427Z,21.20
2017-09-20T14:58:07.999Z,21.32
2017-09-20T15:00:35.512Z,21.28
2017-09-20T15:03:03.041Z,21.44
2017-09-20T15:05:30.570Z,21.90
2017-09-20T15:07:58.074Z,21.54
2017-09-20T15:10:25.625Z,21.88
2017-09-20T15:12:53.163Z,22.02
2017-09-20T15:15:20.675Z,21.59
2017-09-20T15:17:48.152Z,21.94
2017-09-20T15:20:15.662Z,22.31
2017-09-20T15:22:43.154Z,22.46
2017-09-20T15:25:10.650Z,22.10
2017-09-20T15:27:38.150Z,21.55
2017-09-20T15:30:05.691Z,20.72
2017-09-20T15:32:33.180Z,19.95
2017-09-20T15:35:00.636Z,19.46
2017-09-20T15:37:28.138Z,19.33
2017-09-20T15:39:55.606Z,19.38
2017-09-20T15:42:23.153Z,19.63
2017-09-20T15:44:50.590Z,19.72
2017-09-20T15:47:18.097Z,19.60
2017-09-20T15:49:45.569Z,19.60
2017-09-20T15:52:13.073Z,19.68
2017-09-20T15:54:41.911Z,19.74
2017-09-20T15:57:09.736Z,19.79
2017-09-20T15:59:37.233Z,19.78
2017-09-20T16:02:04.693Z,19.80
2017-09-20T16:04:32.756Z,19.51
2017-09-20T16:07:00.240Z,19.04
2017-09-20T16:09:27.792Z,18.76
2017-09-20T16:11:55.266Z,18.55
2017-09-20T16:14:22.805Z,18.52
2017-09-20T16:16:50.276Z,18.40
2017-09-20T16:19:17.823Z,18.23
2017-09-20T16:21:45.311Z,18.03
2017-09-20T16:24:12.795Z,18.08
2017-09-20T16:26:40.288Z,17.86
2017-09-20T16:29:07.765Z,17.84
2017-09-20T16:31:36.116Z,17.78
2017-09-20T16:34:03.596Z,17.62
2017-09-20T16:36:31.075Z,17.52
2017-09-20T16:38:59.394Z,17.54
2017-09-20T16:41:26.889Z,17.55
2017-09-20T16:43:54.369Z,17.44
2017-09-20T16:46:21.858Z,17.09
2017-09-20T16:48:49.353Z,17.37
2017-09-20T16:51:16.826Z,17.37
2017-09-20T16:53:44.321Z,17.31
2017-09-20T16:56:11.813Z,17.25
2017-09-20T16:58:39.369Z,17.23
2017-09-20T17:01:07.414Z,17.16
2017-09-20T17:03:34.881Z,17.12
2017-09-20T17:06:02.401Z,17.09
2017-09-20T17:08:29.923Z,17.04
2017-09-20T17:10:57.441Z,17.03
2017-09-20T17:13:24.937Z,16.93
2017-09-20T17:15:52.455Z,16.93
2017-09-20T17:18:19.950Z,16.85
2017-09-20T17:20:47.424Z,16.80
2017-09-20T17:23:14.897Z,16.72
2017-09-20T17:25:42.353Z,16.65
2017-09-20T17:28:09.840Z,16.52
2017-09-20T17:30:37.301Z,16.45
2017-09-20T17:33:04.809Z,16.31
2017-09-20T17:35:32.341Z,16.29
2017-09-20T17:37:59.819Z,16.35
2017-09-20T17:40:27.297Z,16.22
2017-09-20T17:42:54.815Z,16.15
2017-09-20T17:45:22.300Z,16.18
2017-09-20T17:47:49.821Z,16.17
2017-09-20T17:50:17.308Z,16.31
2017-09-20T17:52:44.789Z,16.24
2017-09-20T17:55:14.001Z,16.20
2017-09-20T17:57:41.526Z,16.17
2017-09-20T18:00:09.002Z,16.08
2017-09-20T18:02:36.554Z,15.90
2017-09-20T18:05:04.022Z,15.83
2017-09-20T18:07:31.515Z,15.80
2017-09-20T18:09:59.004Z,15.88
2017-09-20T18:12:26.464Z,15.87
2017-09-20T18:14:53.970Z,15.81
2017-09-20T18:17:21.586Z,15.82
2017-09-20T18:19:49.078Z,15.76
2017-09-20T18:22:16.566Z,15.71
2017-09-20T18:24:44.099Z,15.59
2017-09-20T18:27:11.565Z,15.55
2017-09-20T18:29:39.084Z,15.51
2017-09-20T18:32:06.554Z,15.46
2017-09-20T18:34:34.064Z,15.46
2017-09-20T18:37:01.546Z,15.44
2017-09-20T18:39:29.043Z,15.33
2017-09-20T18:41:56.693Z,15.26
2017-09-20T18:44:24.173Z,15.23
2017-09-20T18:46:51.642Z,15.29
2017-09-20T18:49:19.168Z,15.20
2017-09-20T18:51:46.710Z,15.09
2017-09-20T18:54:14.197Z,15.04
2017-09-20T18:56:41.734Z,15.03
2017-09-20T18:59:09.226Z,14.89
2017-09-20T19:01:36.788Z,14.76
2017-09-20T19:04:04.276Z,14.74
2017-09-20T19:06:31.789Z,14.78
2017-09-20T19:08:59.290Z,14.78
2017-09-20T19:11:26.789Z,14.73
2017-09-20T19:13:54.304Z,14.57
2017-09-20T19:16:22.153Z,14.47
2017-09-20T19:18:49.709Z,14.51
2017-09-20T19:21:17.211Z,14.51
2017-09-20T19:23:44.721Z,14.50
2017-09-20T19:26:12.286Z,14.34
2017-09-20T19:28:39.864Z,14.18
2017-09-20T19:31:08.290Z,14.14
2017-09-20T19:33:35.802Z,14.14
2017-09-20T19:36:03.357Z,14.11
2017-09-20T19:38:31.186Z,13.90
2017-09-20T19:40:58.706Z,13.90
2017-09-20T19:43:26.180Z,13.86
2017-09-20T19:45:53.692Z,13.88
2017-09-20T19:48:21.171Z,13.86
2017-09-20T19:50:48.687Z,13.89
2017-09-20T19:53:16.255Z,13.88
2017-09-20T19:55:43.772Z,13.78
2017-09-20T19:58:11.318Z,13.62
2017-09-20T20:00:38.807Z,13.63
2017-09-20T20:03:06.326Z,13.64
2017-09-20T20:05:33.800Z,13.69
2017-09-20T20:08:01.306Z,13.60
2017-09-20T20:10:28.787Z,13.56
2017-09-20T20:12:56.399Z,13.52
2017-09-20T20:15:23.900Z,13.47
2017-09-20T20:17:51.425Z,13.43
2017-09-20T20:20:18.924Z,13.41
2017-09-20T20:22:46.445Z,13.47
2017-09-20T20:25:13.946Z,13.38
2017-09-20T20:27:41.464Z,13.31
2017-09-20T20:30:09.074Z,13.27
2017-09-20T20:32:36.609Z,13.20
2017-09-20T20:35:04.132Z,13.14
2017-09-20T20:37:31.629Z,13.09
2017-09-20T20:39:59.139Z,13.12
2017-09-20T20:42:26.630Z,13.11
2017-09-20T20:44:54.080Z,13.25
2017-09-20T20:47:21.573Z,13.30
2017-09-20T20:49:49.049Z,13.21
2017-09-20T20:52:16.611Z,13.12
2017-09-20T20:54:44.423Z,13.09
2017-09-20T20:57:11.883Z,13.00
2017-09-20T20:59:39.390Z,12.91
2017-09-20T21:02:06.902Z,12.86
2017-09-20T21:04:34.401Z,12.83
2017-09-20T21:07:01.875Z,12.72
2017-09-20T21:09:29.408Z,12.71
2017-09-20T21:11:56.901Z,12.71
2017-09-20T21:14:24.406Z,12.72
2017-09-20T21:16:51.893Z,12.65
2017-09-20T21:19:19.402Z,12.36
2017-09-20T21:21:46.873Z,12.43
2017-09-20T21:24:14.357Z,12.52
2017-09-20T21:26:41.836Z,12.57
2017-09-20T21:29:09.287Z,12.47
2017-09-20T21:31:36.777Z,12.40
2017-09-20T21:34:04.228Z,12.31
2017-09-20T21:36:31.725Z,12.27
2017-09-20T21:38:59.242Z,12.34
2017-09-20T21:41:26.710Z,12.32
2017-09-20T21:43:54.203Z,12.39
2017-09-20T21:46:21.655Z,12.43
2017-09-20T21:48:49.209Z,12.45
2017-09-20T21:51:16.701Z,12.35
2017-09-20T21:53:44.201Z,12.29
2017-09-20T21:56:11.656Z,12.20
2017-09-20T21:58:39.148Z,12.24
2017-09-20T22:01:06.610Z,12.17
2017-09-20T22:03:34.098Z,12.09
2017-09-20T22:06:01.562Z,12.10
2017-09-20T22:08:29.036Z,12.18
2017-09-20T22:10:56.513Z,12.19
2017-09-20T22:13:24.057Z,11.95
2017-09-20T22:16:03.252Z,11.90
2017-09-20T22:18:42.393Z,11.95
2017-09-20T22:21:21.537Z,11.92
2017-09-20T22:24:00.891Z,11.81
2017-09-20T22:26:40.057Z,11.52
2017-09-20T22:29:07.510Z,11.57
2017-09-20T22:31:35.025Z,11.67
2017-09-20T22:34:02.490Z,11.70
2017-09-20T22:36:30.081Z,11.75
2017-09-20T22:38:57.542Z,11.67
2017-09-20T22:41:25.016Z,11.62
2017-09-20T22:43:52.526Z,11.67
2017-09-20T22:46:19.969Z,11.56
2017-09-20T22:48:47.480Z,11.58
2017-09-20T22:51:14.961Z,11.51
2017-09-20T22:53:42.886Z,11.39
2017-09-20T22:56:10.337Z,11.29
2017-09-20T22:58:37.834Z,11.29
2017-09-20T23:01:05.302Z,11.38
2017-09-20T23:03:32.772Z,11.49
2017-09-20T23:06:00.258Z,11.47
2017-09-20T23:08:27.742Z,11.44
2017-09-20T23:10:55.212Z,11.35
2017-09-20T23:13:22.669Z,11.37
2017-09-20T23:15:50.136Z,11.28
2017-09-20T23:18:17.606Z,11.23
2017-09-20T23:20:45.105Z,11.08
2017-09-20T23:23:12.570Z,11.12
2017-09-20T23:25:40.060Z,11.17
2017-09-20T23:28:07.535Z,11.20
2017-09-20T23:30:34.994Z,11.23
2017-09-20T23:33:02.498Z,11.21
2017-09-20T23:35:29.976Z,11.22
2017-09-20T23:37:57.461Z,11.27
2017-09-20T23:40:24.921Z,11.23
2017-09-20T23:42:52.447Z,11.18
2017-09-20T23:45:19.908Z,11.10
2017-09-20T23:47:47.364Z,10.97
2017-09-20T23:50:14.849Z,10.97
2017-09-20T23:52:42.314Z,10.96
2017-09-20T23:55:09.796Z,10.86
2017-09-20T23:57:37.244Z,10.82
